createdAt,value
2023-04-02T13:57:30.000Z,42.077637
2023-04-02T13:58:30.000Z,41.668701
2023-04-02T13:58:51.000Z,41.973877
2023-04-02T13:59:11.000Z,41.973877
2023-04-02T13:59:31.000Z,42.077637
2023-04-02T14:00:01.000Z,42.590332
2023-04-02T14:00:21.000Z,41.564941
2023-04-02T14:00:41.000Z,40.954590
2023-04-02T14:01:01.000Z,41.259766
2023-04-02T14:01:21.000Z,42.181396
2023-04-02T14:01:42.000Z,42.181396
2023-04-02T14:02:02.000Z,41.467285
2023-04-02T14:02:22.000Z,40.667725
2023-04-02T14:02:42.000Z,40.869141
2023-04-02T14:03:03.000Z,41.485596
2023-04-02T14:03:23.000Z,41.278076
2023-04-02T14:03:43.000Z,40.771484
2023-04-02T14:04:08.000Z,40.893555
2023-04-02T14:04:38.000Z,41.198730
2023-04-02T14:04:58.000Z,41.094971
2023-04-02T14:05:19.000Z,41.302490
2023-04-02T14:05:39.000Z,41.302490
2023-04-02T14:05:59.000Z,41.217041
2023-04-02T14:06:19.000Z,41.113281
2023-04-02T14:06:40.000Z,41.827393
2023-04-02T14:07:00.000Z,42.651367
2023-04-02T14:07:20.000Z,43.157959
2023-04-02T14:07:40.000Z,42.852783
2023-04-02T14:08:01.000Z,42.651367
2023-04-02T14:08:21.000Z,41.827393
2023-04-02T14:08:41.000Z,41.522217
2023-04-02T14:09:01.000Z,41.748047
2023-04-02T14:09:22.000Z,41.540527
2023-04-02T14:09:42.000Z,41.339111
2023-04-02T14:10:02.000Z,41.564941
2023-04-02T14:10:22.000Z,41.992188
2023-04-02T14:10:43.000Z,42.608643
2023-04-02T14:11:03.000Z,42.810059
2023-04-02T14:11:23.000Z,42.913818
2023-04-02T14:11:43.000Z,42.895508
2023-04-02T15:58:19.000Z,49.456787
2023-04-02T15:58:38.000Z,50.079346
2023-04-02T15:58:59.000Z,49.664307
2023-04-02T15:59:19.000Z,49.456787
2023-04-02T15:59:39.000Z,49.249268
2023-04-02T15:59:59.000Z,49.560547
2023-04-02T16:00:19.000Z,49.975586
2023-04-02T16:00:40.000Z,49.871826
2023-04-02T16:01:00.000Z,49.768066
2023-04-02T16:01:20.000Z,49.768066
2023-04-02T16:01:41.000Z,49.639893
2023-04-02T16:02:01.000Z,49.536133
2023-04-02T16:02:21.000Z,49.743652
2023-04-02T16:02:41.000Z,50.360107
2023-04-02T16:03:02.000Z,49.951172
2023-04-02T16:03:22.000Z,49.847412
2023-04-02T16:03:42.000Z,49.639893
2023-04-02T16:04:02.000Z,49.743652
2023-04-02T16:04:23.000Z,50.054932
2023-04-02T16:04:43.000Z,50.030518
2023-04-02T16:05:03.000Z,49.822998
2023-04-02T16:05:23.000Z,49.615479
2023-04-02T16:05:44.000Z,49.719238
2023-04-02T16:06:04.000Z,50.543213
2023-04-02T16:06:24.000Z,50.750732
2023-04-02T16:06:44.000Z,51.062012
2023-04-02T16:07:04.000Z,50.854492
2023-04-02T16:07:25.000Z,50.622559
2023-04-02T16:07:45.000Z,50.421143
2023-04-02T16:08:05.000Z,50.421143
2023-04-02T16:08:26.000Z,50.421143
2023-04-02T16:08:46.000Z,50.421143
2023-04-02T16:09:06.000Z,50.317383
2023-04-02T16:09:26.000Z,50.109863
2023-04-02T16:09:46.000Z,50.006104
2023-04-02T16:10:07.000Z,50.006104
2023-04-02T16:10:27.000Z,50.213623
2023-04-02T16:10:47.000Z,50.030518
2023-04-02T16:11:08.000Z,50.134277
2023-04-02T16:11:28.000Z,50.238037
2023-04-02T16:11:48.000Z,50.134277
2023-04-02T16:12:08.000Z,50.030518
2023-04-02T16:12:29.000Z,49.719238
2023-04-02T16:12:49.000Z,49.615479
2023-04-02T16:13:09.000Z,49.615479
2023-04-02T16:13:29.000Z,50.238037
2023-04-02T16:13:50.000Z,51.184082
2023-04-02T16:14:10.000Z,51.599121
2023-04-02T16:14:30.000Z,50.360107
2023-04-02T16:14:50.000Z,50.360107
2023-04-02T16:15:11.000Z,51.806641
2023-04-02T16:15:31.000Z,52.008057
2023-04-02T16:15:51.000Z,51.702881
2023-04-02T16:16:11.000Z,51.495361
2023-04-02T16:16:32.000Z,50.982666
